Scm Elpida — V2OI1 — position and weather

sailwx.info

Track history (hours):
 
Tides and Currents Weather Stations Pressure Air Temp Water Temp Dewpoint Dewpoint Depression Visibility Wind Speed Wind Dir Waves Ship Positions

Scm Elpida

Last reported at 2017-Aug-21 08:41 UTC. Time now 2017-Sep-23 07:21 UTC.
Position N 25°25' W 079°34'.
Warning: this ship's position is 32 days out of date.

Length 108 m; draft 7.1 m.

Type: Cargo ship. MMSI: 304188000.

Date/timePositionNaut miles runAvg speedWind from/ knotsBaromVisibWave heightAir tempDewpointWater temp
2017-Aug-21 08:41N 25°25' W 079°34'8 9.6
2017-Aug-21 07:52N 25°33' W 079°36'3 9.3
2017-Aug-21 07:30N 25°36' W 079°37'5 9.1
2017-Aug-21 07:00N 25°41' W 079°38'4 9.0
2017-Aug-21 06:30N 25°45' W 079°39'5 8.9
2017-Aug-21 06:00N 25°49' W 079°40'4 7.1
2017-Aug-21 05:30N 25°53' W 079°41'3 6.6
2017-Aug-21 05:00N 25°55' W 079°43'5 9.8
2017-Aug-21 04:30N 25°58' W 079°48'510.0
2017-Aug-21 04:00N 25°60' W 079°53'510.2
2017-Aug-21 03:30N 26°02' W 079°58'510.9
2017-Aug-21 03:00N 26°04' W 080°03'3 6.4
2017-Aug-21 02:30N 26°05' W 080°07'0 0.2
2017-Aug-21 01:55N 26°05' W 080°07'0 0.0
2017-Aug-21 01:25N 26°05' W 080°07'0 0.0
2017-Aug-21 00:55N 26°05' W 080°07'0 0.0
2017-Aug-21 00:25N 26°05' W 080°07'0 0.0
2017-Aug-20 23:55N 26°05' W 080°07'0 0.0
2017-Aug-20 23:25N 26°05' W 080°07'0 0.0
2017-Aug-20 22:55N 26°05' W 080°07'0 0.0
2017-Aug-20 22:25N 26°05' W 080°07'0 0.0
2017-Aug-20 21:55N 26°05' W 080°07'0 0.0
2017-Aug-20 21:25N 26°05' W 080°07'0 0.0
2017-Aug-20 20:55N 26°05' W 080°07'0 0.0
2017-Aug-20 20:22N 26°05' W 080°07'0 0.0
2017-Aug-20 19:55N 26°05' W 080°07'0 0.0
2017-Aug-20 19:28N 26°05' W 080°07'0 0.0
2017-Aug-20 18:58N 26°05' W 080°07'0 0.0
2017-Aug-20 18:28N 26°05' W 080°07'0 0.0
2017-Aug-20 17:55N 26°05' W 080°07'0 0.0
2017-Aug-20 17:25N 26°05' W 080°07'0 0.0
2017-Aug-20 16:58N 26°05' W 080°07'0 0.0
2017-Aug-20 16:28N 26°05' W 080°07'0 0.0
2017-Aug-20 15:58N 26°05' W 080°07'0 0.0
2017-Aug-20 15:25N 26°05' W 080°07'0 0.0
2017-Aug-20 14:58N 26°05' W 080°07'0 0.0
2017-Aug-20 14:28N 26°05' W 080°07'0 0.0
2017-Aug-20 13:55N 26°05' W 080°07'0 0.0
2017-Aug-20 13:28N 26°05' W 080°07'0 0.0
2017-Aug-20 12:58N 26°05' W 080°07'0 0.0
2017-Aug-20 12:28N 26°05' W 080°07'0 0.0
2017-Aug-20 11:58N 26°05' W 080°07'0 0.0
2017-Aug-20 11:28N 26°05' W 080°07'0 0.0
2017-Aug-20 10:58N 26°05' W 080°07'0 0.0
2017-Aug-20 10:28N 26°05' W 080°07'0 0.0
2017-Aug-20 09:58N 26°05' W 080°07'0 0.0
2017-Aug-20 09:31N 26°05' W 080°07'0 0.0
2017-Aug-20 09:01N 26°05' W 080°07'0 0.0
2017-Aug-20 08:30N 26°05' W 080°07'0 0.8
2017-Aug-20 08:00N 26°05' W 080°07'4 7.6
2017-Aug-20 07:30N 26°05' W 080°03'4 8.5
2017-Aug-20 07:00N 26°03' W 079°59'510.6
2017-Aug-20 06:31N 26°00' W 079°54'0 0.9
2017-Aug-20 06:00N 25°60' W 079°54'4 8.0
2017-Aug-20 05:30N 25°57' W 079°51'1 2.0
2017-Aug-20 05:00N 25°58' W 079°51'1 2.7
2017-Aug-20 04:30N 25°57' W 079°50'611.7
2017-Aug-20 04:00N 25°54' W 079°45'611.8
2017-Aug-20 03:30N 25°50' W 079°40'813.9
2017-Aug-20 02:56N 25°42' W 079°40'613.8
2017-Aug-20 02:30N 25°36' W 079°40'  
2017-Aug-16 10:36N 29°23' W 094°49'110.2
2017-Aug-16 10:30N 29°24' W 094°49'510.4
2017-Aug-16 09:59N 29°29' W 094°52'510.7
2017-Aug-16 09:30N 29°34' W 094°55'611.0
2017-Aug-16 09:00N 29°39' W 094°58'510.1
2017-Aug-16 08:30N 29°43' W 095°01'4 8.3
2017-Aug-16 07:58N 29°46' W 095°05'3 6.6
2017-Aug-16 07:30N 29°44' W 095°08'3 5.9
2017-Aug-16 06:59N 29°45' W 095°11'  
Track history (hours):
 
Tides and Currents Weather Stations Pressure Air Temp Water Temp Dewpoint Dewpoint Depression Visibility Wind Speed Wind Dir Waves Ship Positions

Scm Elpida

Last reported at 2017-Aug-21 08:41 UTC. Time now 2017-Sep-23 07:21 UTC.
Position N 25°25' W 079°34'.
Warning: this ship's position is 32 days out of date.

Length 108 m; draft 7.1 m.

Type: Cargo ship. MMSI: 304188000.

Date/timePositionNaut miles runAvg speedWind from/ knotsBaromVisibWave heightAir tempDewpointWater temp
2017-Aug-21 08:41N 25°25' W 079°34'8 9.6
2017-Aug-21 07:52N 25°33' W 079°36'3 9.3
2017-Aug-21 07:30N 25°36' W 079°37'5 9.1
2017-Aug-21 07:00N 25°41' W 079°38'4 9.0
2017-Aug-21 06:30N 25°45' W 079°39'5 8.9
2017-Aug-21 06:00N 25°49' W 079°40'4 7.1
2017-Aug-21 05:30N 25°53' W 079°41'3 6.6
2017-Aug-21 05:00N 25°55' W 079°43'5 9.8
2017-Aug-21 04:30N 25°58' W 079°48'510.0
2017-Aug-21 04:00N 25°60' W 079°53'510.2
2017-Aug-21 03:30N 26°02' W 079°58'510.9
2017-Aug-21 03:00N 26°04' W 080°03'3 6.4
2017-Aug-21 02:30N 26°05' W 080°07'0 0.2
2017-Aug-21 01:55N 26°05' W 080°07'0 0.0
2017-Aug-21 01:25N 26°05' W 080°07'0 0.0
2017-Aug-21 00:55N 26°05' W 080°07'0 0.0
2017-Aug-21 00:25N 26°05' W 080°07'0 0.0
2017-Aug-20 23:55N 26°05' W 080°07'0 0.0
2017-Aug-20 23:25N 26°05' W 080°07'0 0.0
2017-Aug-20 22:55N 26°05' W 080°07'0 0.0
2017-Aug-20 22:25N 26°05' W 080°07'0 0.0
2017-Aug-20 21:55N 26°05' W 080°07'0 0.0
2017-Aug-20 21:25N 26°05' W 080°07'0 0.0
2017-Aug-20 20:55N 26°05' W 080°07'0 0.0
2017-Aug-20 20:22N 26°05' W 080°07'0 0.0
2017-Aug-20 19:55N 26°05' W 080°07'0 0.0
2017-Aug-20 19:28N 26°05' W 080°07'0 0.0
2017-Aug-20 18:58N 26°05' W 080°07'0 0.0
2017-Aug-20 18:28N 26°05' W 080°07'0 0.0
2017-Aug-20 17:55N 26°05' W 080°07'0 0.0
2017-Aug-20 17:25N 26°05' W 080°07'0 0.0
2017-Aug-20 16:58N 26°05' W 080°07'0 0.0
2017-Aug-20 16:28N 26°05' W 080°07'0 0.0
2017-Aug-20 15:58N 26°05' W 080°07'0 0.0
2017-Aug-20 15:25N 26°05' W 080°07'0 0.0
2017-Aug-20 14:58N 26°05' W 080°07'0 0.0
2017-Aug-20 14:28N 26°05' W 080°07'0 0.0
2017-Aug-20 13:55N 26°05' W 080°07'0 0.0
2017-Aug-20 13:28N 26°05' W 080°07'0 0.0
2017-Aug-20 12:58N 26°05' W 080°07'0 0.0
2017-Aug-20 12:28N 26°05' W 080°07'0 0.0
2017-Aug-20 11:58N 26°05' W 080°07'0 0.0
2017-Aug-20 11:28N 26°05' W 080°07'0 0.0
2017-Aug-20 10:58N 26°05' W 080°07'0 0.0
2017-Aug-20 10:28N 26°05' W 080°07'0 0.0
2017-Aug-20 09:58N 26°05' W 080°07'0 0.0
2017-Aug-20 09:31N 26°05' W 080°07'0 0.0
2017-Aug-20 09:01N 26°05' W 080°07'0 0.0
2017-Aug-20 08:30N 26°05' W 080°07'0 0.8
2017-Aug-20 08:00N 26°05' W 080°07'4 7.6
2017-Aug-20 07:30N 26°05' W 080°03'4 8.5
2017-Aug-20 07:00N 26°03' W 079°59'510.6
2017-Aug-20 06:31N 26°00' W 079°54'0 0.9
2017-Aug-20 06:00N 25°60' W 079°54'4 8.0
2017-Aug-20 05:30N 25°57' W 079°51'1 2.0
2017-Aug-20 05:00N 25°58' W 079°51'1 2.7
2017-Aug-20 04:30N 25°57' W 079°50'611.7
2017-Aug-20 04:00N 25°54' W 079°45'611.8
2017-Aug-20 03:30N 25°50' W 079°40'813.9
2017-Aug-20 02:56N 25°42' W 079°40'613.8
2017-Aug-20 02:30N 25°36' W 079°40'  
2017-Aug-16 10:36N 29°23' W 094°49'110.2
2017-Aug-16 10:30N 29°24' W 094°49'510.4
2017-Aug-16 09:59N 29°29' W 094°52'510.7
2017-Aug-16 09:30N 29°34' W 094°55'611.0
2017-Aug-16 09:00N 29°39' W 094°58'510.1
2017-Aug-16 08:30N 29°43' W 095°01'4 8.3
2017-Aug-16 07:58N 29°46' W 095°05'3 6.6
2017-Aug-16 07:30N 29°44' W 095°08'3 5.9
2017-Aug-16 06:59N 29°45' W 095°11'  

Dump ship's entire track history